createdAt,value
2022-12-01T00:01:53.513Z,8.01
2022-12-01T00:04:20.449Z,7.58
2022-12-01T00:06:47.189Z,8.31
2022-12-01T00:09:32.937Z,8.15
2022-12-01T00:12:01.838Z,8.32
2022-12-01T00:14:28.643Z,8.01
2022-12-01T00:16:55.471Z,8.10
2022-12-01T00:19:28.195Z,8.13
2022-12-01T00:21:55.209Z,6.90
2022-12-01T00:24:24.116Z,7.34
2022-12-01T00:26:50.992Z,8.18
2022-12-01T00:29:18.294Z,8.34
2022-12-01T00:31:46.225Z,7.93
2022-12-01T00:34:35.022Z,7.84
2022-12-01T00:37:04.218Z,8.30
2022-12-01T00:39:31.486Z,7.84
2022-12-01T00:41:58.411Z,7.51
2022-12-01T00:44:25.366Z,7.73
2022-12-01T00:46:53.449Z,7.90
2022-12-01T00:49:23.271Z,8.07
2022-12-01T00:51:55.356Z,7.21
2022-12-01T00:54:22.057Z,8.33
2022-12-01T00:56:48.898Z,8.14
2022-12-01T00:59:16.130Z,7.51
2022-12-01T01:01:43.052Z,7.10
2022-12-01T01:04:09.931Z,8.18
2022-12-01T01:06:45.590Z,7.61
2022-12-01T01:09:17.400Z,8.07
2022-12-01T01:11:44.363Z,8.16
2022-12-01T01:14:14.583Z,7.45
2022-12-01T01:16:42.396Z,7.82
2022-12-01T01:19:09.827Z,8.22
2022-12-01T01:21:37.795Z,7.39
2022-12-01T01:24:10.173Z,7.82
2022-12-01T01:26:37.933Z,8.15
2022-12-01T01:29:08.936Z,7.88
2022-12-01T01:31:37.993Z,8.27
2022-12-01T01:34:05.069Z,8.26
2022-12-01T01:36:32.117Z,8.14
2022-12-01T01:39:00.802Z,8.11
2022-12-01T01:41:28.614Z,7.69
2022-12-01T01:44:04.969Z,7.82
2022-12-01T01:46:36.596Z,7.71
2022-12-01T01:49:11.439Z,7.89
2022-12-01T01:51:45.648Z,7.86
2022-12-01T01:54:25.955Z,7.81
2022-12-01T01:56:54.939Z,7.95
2022-12-01T01:59:33.624Z,7.86
2022-12-01T02:02:08.970Z,7.91
2022-12-01T02:04:38.695Z,8.02
2022-12-01T02:07:10.988Z,8.04
2022-12-01T02:09:41.316Z,8.03
2022-12-01T02:12:15.633Z,7.60
2022-12-01T02:14:51.590Z,8.07
2022-12-01T02:17:26.396Z,7.95
2022-12-01T02:20:00.142Z,8.15
2022-12-01T02:22:52.286Z,7.65
2022-12-01T02:25:56.211Z,7.86
2022-12-01T02:28:36.766Z,7.95
2022-12-01T02:31:31.518Z,7.86
2022-12-01T02:34:06.924Z,7.96
2022-12-01T02:36:50.487Z,8.04
2022-12-01T02:39:31.463Z,7.96
2022-12-01T02:42:07.050Z,8.13
2022-12-01T02:44:43.160Z,8.12
2022-12-01T02:47:13.811Z,7.89
2022-12-01T02:49:48.766Z,7.98
2022-12-01T02:52:17.017Z,8.07
2022-12-01T02:54:45.861Z,7.86
2022-12-01T02:57:14.223Z,8.03
2022-12-01T02:59:50.381Z,8.05
2022-12-01T03:02:33.268Z,7.85
2022-12-01T03:05:00.226Z,8.09
2022-12-01T03:07:58.715Z,8.00
2022-12-01T03:10:41.393Z,8.09
2022-12-01T03:13:22.857Z,7.96
2022-12-01T03:16:04.402Z,8.22
2022-12-01T03:18:51.093Z,8.10
2022-12-01T03:21:52.690Z,7.80
2022-12-01T03:24:22.766Z,8.18
2022-12-01T03:27:00.106Z,7.95
2022-12-01T03:29:44.019Z,8.03
2022-12-01T03:32:20.316Z,8.11
2022-12-01T03:34:59.266Z,8.12
2022-12-01T03:37:36.563Z,8.25
2022-12-01T03:40:06.698Z,7.75
2022-12-01T03:42:47.243Z,8.13
2022-12-01T03:45:40.501Z,8.11
2022-12-01T03:48:11.029Z,7.98
2022-12-01T03:50:49.848Z,7.73
2022-12-01T03:53:30.036Z,7.81
2022-12-01T03:56:02.693Z,7.60
2022-12-01T03:58:38.439Z,7.68
2022-12-01T04:01:07.982Z,7.93
2022-12-01T04:03:35.489Z,8.06
2022-12-01T04:06:02.312Z,7.98
2022-12-01T04:08:30.841Z,8.06
2022-12-01T04:11:00.075Z,7.77
2022-12-01T04:13:26.956Z,7.97
2022-12-01T04:15:56.862Z,7.93
2022-12-01T04:18:25.021Z,7.48
2022-12-01T04:20:51.797Z,7.88
2022-12-01T04:23:44.561Z,7.97
2022-12-01T04:26:18.046Z,7.90
2022-12-01T04:28:45.709Z,7.76
2022-12-01T04:31:12.518Z,7.71
2022-12-01T04:33:39.344Z,7.82
2022-12-01T04:36:06.745Z,7.74
2022-12-01T04:38:37.267Z,7.98
2022-12-01T04:41:18.050Z,7.85
2022-12-01T04:43:47.347Z,7.91
2022-12-01T04:46:15.918Z,7.97
2022-12-01T04:48:43.718Z,8.00
2022-12-01T04:51:10.429Z,7.99
2022-12-01T04:53:37.546Z,7.76
2022-12-01T04:56:04.762Z,7.91
2022-12-01T04:58:33.166Z,7.22
2022-12-01T05:01:08.329Z,7.95
2022-12-01T05:03:43.794Z,7.99
2022-12-01T05:06:16.570Z,7.90
2022-12-01T05:08:45.399Z,7.59
2022-12-01T05:11:15.175Z,8.02
2022-12-01T05:13:45.705Z,6.42
2022-12-01T05:16:24.898Z,7.66
2022-12-01T05:19:16.316Z,7.79
2022-12-01T05:21:47.674Z,7.81
2022-12-01T05:24:18.253Z,7.79
2022-12-01T05:26:45.725Z,7.62
2022-12-01T05:29:14.946Z,7.84
2022-12-01T05:31:44.969Z,7.60
2022-12-01T05:34:14.249Z,7.72
2022-12-01T05:36:42.136Z,7.77
2022-12-01T05:39:09.133Z,7.47
2022-12-01T05:41:36.094Z,7.74
2022-12-01T05:44:02.834Z,7.39
2022-12-01T05:46:37.614Z,7.11
2022-12-01T05:49:11.778Z,6.69
2022-12-01T05:51:38.516Z,7.82
2022-12-01T05:54:11.895Z,7.88
2022-12-01T05:56:41.894Z,6.84
2022-12-01T05:59:08.733Z,7.93
2022-12-01T06:01:35.499Z,7.37
2022-12-01T06:04:02.443Z,7.86
2022-12-01T06:06:29.362Z,7.72
2022-12-01T06:08:56.103Z,7.69
2022-12-01T06:11:22.935Z,8.01
2022-12-01T06:13:49.694Z,7.88
2022-12-01T06:16:16.539Z,7.43
2022-12-01T06:18:43.314Z,7.88
2022-12-01T06:21:13.413Z,6.54
2022-12-01T06:23:40.642Z,7.41
2022-12-01T06:26:07.543Z,6.41
2022-12-01T06:28:34.544Z,7.79
2022-12-01T06:31:03.555Z,6.76
2022-12-01T06:33:31.952Z,7.70
2022-12-01T06:36:05.403Z,7.80
2022-12-01T06:38:34.063Z,6.42
2022-12-01T06:41:01.557Z,7.87
2022-12-01T06:43:28.499Z,7.88
2022-12-01T06:46:01.143Z,7.91
2022-12-01T06:48:28.579Z,7.36
2022-12-01T06:50:58.332Z,8.04
2022-12-01T06:53:27.424Z,7.93
2022-12-01T06:56:04.512Z,7.74
2022-12-01T06:58:32.349Z,8.01
2022-12-01T07:00:59.693Z,8.02
2022-12-01T07:03:27.051Z,8.04
2022-12-01T07:05:59.035Z,6.49
2022-12-01T07:08:26.479Z,7.99
2022-12-01T07:11:09.928Z,8.05
2022-12-01T07:13:36.751Z,8.07
2022-12-01T07:16:03.704Z,8.08
2022-12-01T07:18:31.510Z,8.04
2022-12-01T07:21:06.137Z,7.76
2022-12-01T07:23:33.823Z,7.81
2022-12-01T07:26:19.054Z,8.02
2022-12-01T07:28:53.008Z,8.02
2022-12-01T07:31:20.017Z,8.02
2022-12-01T07:33:46.956Z,7.09
2022-12-01T07:36:14.348Z,6.62
2022-12-01T07:38:41.835Z,7.87
2022-12-01T07:41:11.562Z,8.03
2022-12-01T07:43:39.343Z,6.80
2022-12-01T07:46:18.901Z,8.08
2022-12-01T07:48:49.442Z,7.92
2022-12-01T07:51:17.434Z,8.02
2022-12-01T07:53:46.626Z,7.62
2022-12-01T07:56:13.992Z,7.92
2022-12-01T07:58:41.100Z,8.12
2022-12-01T08:01:15.990Z,8.04
2022-12-01T08:03:43.384Z,8.07
2022-12-01T08:06:13.124Z,8.17
2022-12-01T08:08:41.423Z,8.44
2022-12-01T08:11:21.153Z,8.41
2022-12-01T08:13:48.269Z,8.41
2022-12-01T08:16:19.917Z,8.46
2022-12-01T08:18:46.930Z,8.30
2022-12-01T08:21:22.039Z,7.94
2022-12-01T08:23:54.984Z,8.42
2022-12-01T08:26:25.753Z,8.36
2022-12-01T08:28:52.621Z,8.35
2022-12-01T08:31:40.607Z,8.03
2022-12-01T08:34:07.790Z,8.17
2022-12-01T08:36:35.722Z,8.00
2022-12-01T08:39:02.445Z,8.22
2022-12-01T08:41:32.407Z,8.12
2022-12-01T08:44:01.997Z,8.08
2022-12-01T08:46:32.645Z,8.37
2022-12-01T08:49:01.845Z,8.26
2022-12-01T08:51:29.101Z,8.26
2022-12-01T08:53:57.995Z,8.09
2022-12-01T08:56:27.927Z,8.39
2022-12-01T08:58:55.410Z,8.38
2022-12-01T09:01:24.572Z,8.55
2022-12-01T09:04:06.014Z,8.22
2022-12-01T09:06:44.327Z,8.42
2022-12-01T09:09:16.494Z,8.40
2022-12-01T09:11:44.079Z,8.30
2022-12-01T09:14:15.456Z,8.47
2022-12-01T09:16:43.597Z,7.73
2022-12-01T09:19:13.082Z,8.02
2022-12-01T09:21:41.001Z,8.41
2022-12-01T09:24:10.672Z,8.45
2022-12-01T09:26:37.639Z,8.40
2022-12-01T09:29:10.557Z,8.55
2022-12-01T09:31:41.524Z,8.56
2022-12-01T09:34:15.615Z,8.58
2022-12-01T09:39:28.933Z,8.64
2022-12-01T09:41:57.932Z,8.64
2022-12-01T09:44:45.586Z,8.51
2022-12-01T09:47:21.872Z,8.33
2022-12-01T09:50:00.707Z,8.70
2022-12-01T09:52:40.087Z,8.77
2022-12-01T09:55:19.132Z,8.72
2022-12-01T09:57:50.769Z,8.55
2022-12-01T10:00:24.052Z,8.61
2022-12-01T10:03:09.850Z,8.73
2022-12-01T10:06:18.389Z,8.66
2022-12-01T10:08:40.036Z,8.68
2022-12-01T10:11:30.314Z,8.57
2022-12-01T10:13:59.485Z,8.74
2022-12-01T10:16:38.542Z,8.77
2022-12-01T10:19:13.648Z,8.80
2022-12-01T10:21:43.221Z,8.50
2022-12-01T10:24:28.782Z,8.96
2022-12-01T10:27:10.209Z,8.69
2022-12-01T10:30:03.563Z,9.00
2022-12-01T10:32:43.784Z,9.00
2022-12-01T10:35:17.058Z,9.09
2022-12-01T10:37:47.819Z,9.13
2022-12-01T10:40:16.358Z,7.66
2022-12-01T10:42:51.063Z,8.99
2022-12-01T10:45:44.011Z,9.13
2022-12-01T10:48:18.587Z,8.93
2022-12-01T10:50:49.241Z,9.42
2022-12-01T10:53:39.603Z,9.45
2022-12-01T10:56:18.243Z,9.43
2022-12-01T10:58:57.235Z,9.09
2022-12-01T11:01:34.791Z,9.34
2022-12-01T11:04:45.152Z,9.38
2022-12-01T11:07:23.464Z,9.17
2022-12-01T11:10:17.383Z,8.88
2022-12-01T11:13:04.243Z,9.06
2022-12-01T11:15:49.249Z,9.04
2022-12-01T11:18:33.561Z,8.98
2022-12-01T11:21:25.797Z,9.15
2022-12-01T11:23:55.644Z,9.09
2022-12-01T11:26:34.740Z,8.92
2022-12-01T11:29:03.598Z,9.00
2022-12-01T11:31:50.070Z,8.92
2022-12-01T11:34:29.816Z,9.07
2022-12-01T11:37:03.268Z,9.05
2022-12-01T11:39:37.877Z,9.02
2022-12-01T11:42:21.411Z,9.00
2022-12-01T11:44:59.209Z,9.09
2022-12-01T11:47:27.875Z,9.07
2022-12-01T11:50:00.295Z,9.21
2022-12-01T11:52:32.133Z,9.07
2022-12-01T11:55:15.677Z,9.11
2022-12-01T11:57:48.473Z,9.10
2022-12-01T12:00:20.332Z,8.72
2022-12-01T12:03:04.822Z,8.67
2022-12-01T12:06:32.348Z,9.20
2022-12-01T12:09:02.408Z,9.25
2022-12-01T12:11:47.962Z,8.80
2022-12-01T12:14:26.562Z,9.24
2022-12-01T12:17:09.025Z,9.21
2022-12-01T12:20:08.245Z,9.19
2022-12-01T12:23:13.091Z,9.08
2022-12-01T12:25:41.177Z,9.15
2022-12-01T12:28:34.438Z,9.11
2022-12-01T12:31:37.132Z,9.20
2022-12-01T12:34:17.082Z,9.22
2022-12-01T12:36:51.986Z,9.11
2022-12-01T12:39:20.334Z,9.19
2022-12-01T12:41:52.395Z,9.11
2022-12-01T12:44:38.193Z,9.34
2022-12-01T12:47:27.231Z,9.32
2022-12-01T12:50:07.483Z,9.22
2022-12-01T12:52:49.216Z,9.16
2022-12-01T12:55:34.762Z,9.25
2022-12-01T12:58:19.551Z,8.72
2022-12-01T13:01:09.780Z,9.47
2022-12-01T13:03:56.126Z,9.41
2022-12-01T13:06:34.527Z,9.46
2022-12-01T13:09:29.489Z,9.47
2022-12-01T13:12:16.006Z,9.44
2022-12-01T13:14:59.464Z,9.49
2022-12-01T13:17:37.609Z,9.37
2022-12-01T13:20:13.659Z,9.54
2022-12-01T13:22:44.410Z,9.65
2022-12-01T13:25:27.143Z,9.59
2022-12-01T13:27:58.148Z,9.45
2022-12-01T13:30:26.756Z,9.61
2022-12-01T13:33:04.198Z,9.62
2022-12-01T13:35:39.367Z,9.43
2022-12-01T13:38:35.120Z,9.77
2022-12-01T13:41:32.033Z,9.72
2022-12-01T13:44:21.324Z,9.29
2022-12-01T13:46:48.036Z,9.50
2022-12-01T13:49:43.500Z,9.65
2022-12-01T13:52:22.743Z,9.56
2022-12-01T13:55:08.090Z,9.74
2022-12-01T13:57:34.831Z,9.41
2022-12-01T14:00:03.717Z,9.77
2022-12-01T14:02:33.146Z,8.89
2022-12-01T14:05:28.053Z,9.88
2022-12-01T14:08:00.941Z,9.62
2022-12-01T14:10:33.140Z,8.89
2022-12-01T14:13:04.489Z,9.48
2022-12-01T14:15:40.354Z,9.95
2022-12-01T14:18:19.098Z,9.90
2022-12-01T14:20:51.543Z,9.92
2022-12-01T14:23:24.684Z,9.31
2022-12-01T14:26:22.610Z,9.96
2022-12-01T14:28:55.338Z,9.46
2022-12-01T14:31:23.901Z,9.26
2022-12-01T14:33:58.222Z,9.62
2022-12-01T14:36:25.029Z,10.00
2022-12-01T14:39:05.705Z,9.30
2022-12-01T14:41:52.440Z,9.94
2022-12-01T14:44:45.524Z,9.97
2022-12-01T14:47:34.357Z,9.94
2022-12-01T14:50:12.003Z,10.02
2022-12-01T14:52:49.266Z,10.01
2022-12-01T14:55:26.179Z,9.08
2022-12-01T14:58:31.411Z,9.91
2022-12-01T15:01:11.811Z,9.93
2022-12-01T15:03:41.720Z,9.56
2022-12-01T15:06:17.130Z,9.30
2022-12-01T15:08:58.362Z,10.00
2022-12-01T15:11:36.598Z,10.01
2022-12-01T15:14:05.887Z,9.92
2022-12-01T15:16:41.210Z,9.48
2022-12-01T15:19:40.263Z,9.77
2022-12-01T15:22:14.102Z,9.88
2022-12-01T15:24:42.269Z,9.95
2022-12-01T15:27:33.450Z,9.88
2022-12-01T15:30:04.844Z,9.74
2022-12-01T15:32:38.416Z,9.68
2022-12-01T15:35:20.403Z,9.90
2022-12-01T15:37:47.870Z,9.88
2022-12-01T15:43:29.347Z,9.74
2022-12-01T15:46:01.848Z,9.72
2022-12-01T15:48:35.348Z,9.60
2022-12-01T15:51:07.947Z,9.77
2022-12-01T15:53:44.596Z,8.41
2022-12-01T15:56:21.287Z,8.78
2022-12-01T15:58:54.567Z,9.45
2022-12-01T16:01:29.545Z,9.69
2022-12-01T16:04:04.344Z,9.60
2022-12-01T16:06:34.302Z,9.45
2022-12-01T16:09:03.901Z,9.54
2022-12-01T16:11:31.001Z,9.68
2022-12-01T16:14:05.003Z,9.57
2022-12-01T16:16:42.881Z,9.71
2022-12-01T16:19:09.616Z,9.28
2022-12-01T16:21:54.325Z,9.67
2022-12-01T16:24:26.298Z,9.65
2022-12-01T16:27:02.572Z,9.61
2022-12-01T16:29:31.682Z,9.69
2022-12-01T16:32:21.846Z,9.26
2022-12-01T16:35:02.822Z,9.38
2022-12-01T16:37:30.067Z,9.83
2022-12-01T16:39:57.413Z,9.97
2022-12-01T16:42:25.995Z,9.94
2022-12-01T16:44:56.656Z,9.92
2022-12-01T16:47:49.154Z,9.70
2022-12-01T16:50:22.816Z,9.65
2022-12-01T16:52:54.162Z,9.55
2022-12-01T16:55:43.352Z,9.72
2022-12-01T16:58:11.496Z,9.33
2022-12-01T17:03:29.434Z,9.51
2022-12-01T17:06:00.797Z,9.68
2022-12-01T17:08:28.704Z,9.18
2022-12-01T17:10:56.184Z,9.41
2022-12-01T17:13:24.079Z,9.16
2022-12-01T17:16:00.868Z,9.38
2022-12-01T17:18:34.463Z,9.45
2022-12-01T17:21:04.656Z,9.33
2022-12-01T17:23:35.651Z,9.40
2022-12-01T17:26:04.084Z,9.39
2022-12-01T17:28:31.938Z,9.36
2022-12-01T17:31:04.084Z,9.43
2022-12-01T17:33:35.404Z,9.40
2022-12-01T17:36:08.782Z,9.38
2022-12-01T17:38:36.610Z,9.24
2022-12-01T17:41:13.218Z,8.91
2022-12-01T17:43:41.633Z,9.37
2022-12-01T17:46:13.104Z,8.96
2022-12-01T17:48:43.260Z,9.25
2022-12-01T17:51:11.339Z,9.40
2022-12-01T17:53:39.741Z,9.46
2022-12-01T17:56:13.589Z,9.31
2022-12-01T17:58:42.387Z,9.46
2022-12-01T18:01:20.782Z,9.38
2022-12-01T18:03:50.981Z,9.13
2022-12-01T18:06:20.994Z,9.46
2022-12-01T18:08:48.119Z,9.45
2022-12-01T18:11:16.506Z,9.31
2022-12-01T18:13:49.203Z,9.29
2022-12-01T18:16:19.757Z,9.12
2022-12-01T18:18:47.138Z,9.22
2022-12-01T18:21:20.059Z,9.19
2022-12-01T18:23:55.160Z,9.22
2022-12-01T18:26:22.363Z,9.04
2022-12-01T18:29:03.646Z,9.18
2022-12-01T18:31:31.123Z,8.60
2022-12-01T18:34:02.649Z,9.24
2022-12-01T18:36:36.609Z,8.86
2022-12-01T18:39:04.792Z,8.87
2022-12-01T18:41:31.938Z,9.16
2022-12-01T18:43:58.630Z,9.18
2022-12-01T18:46:27.009Z,8.94
2022-12-01T18:49:04.174Z,9.18
2022-12-01T18:51:34.979Z,9.16
2022-12-01T18:54:05.261Z,9.12
2022-12-01T18:56:34.544Z,9.08
2022-12-01T18:59:08.549Z,9.20
2022-12-01T19:01:41.158Z,9.18
2022-12-01T19:04:08.930Z,9.19
2022-12-01T19:06:37.371Z,8.97
2022-12-01T19:09:08.053Z,8.86
2022-12-01T19:11:34.956Z,9.24
2022-12-01T19:14:01.963Z,9.10
2022-12-01T19:16:37.362Z,9.11
2022-12-01T19:19:04.454Z,8.96
2022-12-01T19:21:31.269Z,9.12
2022-12-01T19:24:00.101Z,9.03
2022-12-01T19:26:29.900Z,8.87
2022-12-01T19:28:58.179Z,9.05
2022-12-01T19:31:25.280Z,8.91
2022-12-01T19:33:55.590Z,8.99
2022-12-01T19:36:28.001Z,8.89
2022-12-01T19:38:57.736Z,8.68
2022-12-01T19:41:29.175Z,8.94
2022-12-01T19:43:56.168Z,9.08
2022-12-01T19:46:24.825Z,8.98
2022-12-01T19:49:09.478Z,9.09
2022-12-01T19:51:38.595Z,8.87
2022-12-01T19:54:09.111Z,9.08
2022-12-01T19:56:35.848Z,8.92
2022-12-01T19:59:02.650Z,8.86
2022-12-01T20:01:29.374Z,8.77
2022-12-01T20:03:56.326Z,8.78
2022-12-01T20:06:29.089Z,8.94
2022-12-01T20:09:00.616Z,8.95
2022-12-01T20:11:29.951Z,8.97
2022-12-01T20:13:57.838Z,8.63
2022-12-01T20:16:32.823Z,8.76
2022-12-01T20:19:02.642Z,8.85
2022-12-01T20:21:42.330Z,8.98
2022-12-01T20:24:16.457Z,8.93
2022-12-01T20:26:50.339Z,8.88
2022-12-01T20:29:20.313Z,8.89
2022-12-01T20:31:51.629Z,8.88
2022-12-01T20:34:22.399Z,8.85
2022-12-01T20:36:49.617Z,8.88
2022-12-01T20:39:16.757Z,8.89
2022-12-01T20:41:44.514Z,8.89
2022-12-01T20:44:14.636Z,8.90
2022-12-01T20:46:41.427Z,8.84
2022-12-01T20:49:09.032Z,8.91
2022-12-01T20:51:37.828Z,8.74
2022-12-01T20:54:33.764Z,8.72
2022-12-01T20:57:00.710Z,8.84
2022-12-01T20:59:28.219Z,8.45
2022-12-01T21:01:55.638Z,8.75
2022-12-01T21:04:22.655Z,8.57
2022-12-01T21:06:52.580Z,8.74
2022-12-01T21:09:19.677Z,8.71
2022-12-01T21:12:08.375Z,8.75
2022-12-01T21:14:50.789Z,8.68
2022-12-01T21:17:38.926Z,8.33
2022-12-01T21:20:11.687Z,8.39
2022-12-01T21:22:38.570Z,8.80
2022-12-01T21:25:19.357Z,8.75
2022-12-01T21:27:48.073Z,8.71
2022-12-01T21:30:25.902Z,8.81
2022-12-01T21:32:53.985Z,8.56
2022-12-01T21:35:27.506Z,8.84
2022-12-01T21:38:10.906Z,8.48
2022-12-01T21:40:37.923Z,8.76
2022-12-01T21:43:25.672Z,8.72
2022-12-01T21:45:56.380Z,8.43
2022-12-01T21:48:24.255Z,8.57
2022-12-01T21:51:02.038Z,8.69
2022-12-01T21:53:38.640Z,8.75
2022-12-01T21:56:05.581Z,8.72
2022-12-01T21:58:36.160Z,8.56
2022-12-01T22:01:16.912Z,8.52
2022-12-01T22:03:45.798Z,8.84
2022-12-01T22:06:37.192Z,8.65
2022-12-01T22:09:15.170Z,8.77
2022-12-01T22:11:46.259Z,8.78
2022-12-01T22:14:23.851Z,8.77
2022-12-01T22:17:01.477Z,8.57
2022-12-01T22:19:38.313Z,7.83
2022-12-01T22:22:11.274Z,8.85
2022-12-01T22:24:48.347Z,8.43
2022-12-01T22:27:32.461Z,8.85
2022-12-01T22:30:23.442Z,8.75
2022-12-01T22:32:57.420Z,8.53
2022-12-01T22:35:30.067Z,8.52
2022-12-01T22:38:06.164Z,8.78
2022-12-01T22:40:37.907Z,8.63
2022-12-01T22:43:21.672Z,8.69
2022-12-01T22:46:02.997Z,7.94
2022-12-01T22:48:45.697Z,8.70
2022-12-01T22:51:39.907Z,8.69
2022-12-01T22:54:18.703Z,8.47
2022-12-01T22:56:59.274Z,8.65
2022-12-01T22:59:38.056Z,8.35
2022-12-01T23:02:23.089Z,8.46
2022-12-01T23:04:56.669Z,8.45
2022-12-01T23:07:37.049Z,8.41
2022-12-01T23:10:12.865Z,7.88
2022-12-01T23:12:40.422Z,8.40
2022-12-01T23:15:45.322Z,8.35
2022-12-01T23:18:14.945Z,8.20
2022-12-01T23:20:44.302Z,8.27
2022-12-01T23:23:29.079Z,8.26
2022-12-01T23:25:56.748Z,8.22
2022-12-01T23:28:24.666Z,8.18
2022-12-01T23:30:55.325Z,8.27
2022-12-01T23:33:36.306Z,7.80
2022-12-01T23:36:05.315Z,8.10
2022-12-01T23:38:38.405Z,8.02
2022-12-01T23:41:08.213Z,8.05
2022-12-01T23:43:42.875Z,8.00
2022-12-01T23:46:12.637Z,8.14
2022-12-01T23:49:01.971Z,8.15
2022-12-01T23:51:33.789Z,7.98
2022-12-01T23:54:04.611Z,8.10
2022-12-01T23:56:37.861Z,8.06
2022-12-01T23:59:12.322Z,8.05
